createdAt,value
2023-03-11T00:00:56.055Z,14.54
2023-03-11T00:03:24.655Z,14.50
2023-03-11T00:05:53.073Z,14.43
2023-03-11T00:08:22.109Z,14.44
2023-03-11T00:10:52.538Z,14.27
2023-03-11T00:13:20.064Z,14.25
2023-03-11T00:15:49.558Z,14.24
2023-03-11T00:18:17.647Z,14.02
2023-03-11T00:20:46.146Z,13.98
2023-03-11T00:23:14.427Z,13.87
2023-03-11T00:25:43.768Z,13.82
2023-03-11T00:28:11.791Z,13.79
2023-03-11T00:30:41.088Z,13.68
2023-03-11T00:33:08.868Z,13.67
2023-03-11T00:35:36.840Z,13.80
2023-03-11T00:38:06.125Z,13.75
2023-03-11T00:40:34.964Z,13.71
2023-03-11T00:43:04.132Z,13.68
2023-03-11T00:45:31.922Z,13.64
2023-03-11T00:47:59.864Z,13.58
2023-03-11T00:50:29.873Z,13.53
2023-03-11T00:52:58.131Z,13.54
2023-03-11T00:55:27.736Z,13.53
2023-03-11T00:57:57.306Z,13.46
2023-03-11T01:00:28.926Z,13.46
2023-03-11T01:02:57.146Z,13.48
2023-03-11T01:05:27.843Z,13.43
2023-03-11T01:07:56.204Z,13.44
2023-03-11T01:10:23.830Z,13.57
2023-03-11T01:12:52.447Z,13.52
2023-03-11T01:15:26.885Z,13.47
2023-03-11T01:17:54.482Z,13.41
2023-03-11T01:20:22.331Z,13.40
2023-03-11T01:22:49.963Z,13.41
2023-03-11T01:25:18.732Z,13.31
2023-03-11T01:27:46.375Z,13.35
2023-03-11T01:30:16.254Z,13.31
2023-03-11T01:32:44.024Z,13.43
2023-03-11T01:35:13.461Z,13.43
2023-03-11T01:37:41.402Z,13.46
2023-03-11T01:40:13.510Z,13.40
2023-03-11T01:42:41.239Z,13.43
2023-03-11T01:45:27.807Z,13.47
2023-03-11T01:47:55.539Z,13.47
2023-03-11T01:50:23.622Z,13.51
2023-03-11T01:52:51.399Z,13.38
2023-03-11T01:55:20.137Z,13.21
2023-03-11T01:57:48.398Z,13.11
2023-03-11T02:00:16.922Z,13.01
2023-03-11T02:02:55.547Z,12.87
2023-03-11T02:05:24.983Z,12.89
2023-03-11T02:07:55.336Z,12.93
2023-03-11T02:10:26.948Z,12.97
2023-03-11T02:12:55.549Z,13.00
2023-03-11T02:15:24.471Z,13.02
2023-03-11T02:17:52.893Z,12.96
2023-03-11T02:20:21.048Z,12.75
2023-03-11T02:22:49.718Z,12.70
2023-03-11T02:25:18.509Z,12.75
2023-03-11T02:27:48.727Z,12.75
2023-03-11T02:30:18.487Z,12.72
2023-03-11T02:32:48.889Z,12.54
2023-03-11T02:35:18.323Z,12.42
2023-03-11T02:37:52.026Z,12.51
2023-03-11T02:40:24.045Z,12.23
2023-03-11T02:42:57.488Z,12.17
2023-03-11T02:45:26.127Z,12.25
2023-03-11T02:47:55.667Z,12.40
2023-03-11T02:50:25.590Z,12.25
2023-03-11T02:52:53.372Z,12.24
2023-03-11T02:55:23.081Z,12.32
2023-03-11T02:57:50.743Z,12.37
2023-03-11T03:00:18.633Z,12.32
2023-03-11T03:02:53.604Z,12.28
2023-03-11T03:05:23.032Z,12.18
2023-03-11T03:07:52.142Z,12.17
2023-03-11T03:10:20.637Z,12.23
2023-03-11T03:12:48.613Z,12.20
2023-03-11T03:15:16.424Z,12.23
2023-03-11T03:17:46.755Z,12.24
2023-03-11T03:20:15.299Z,12.24
2023-03-11T03:22:49.130Z,12.23
2023-03-11T03:25:19.153Z,12.16
2023-03-11T03:27:48.062Z,12.09
2023-03-11T03:30:16.041Z,12.02
2023-03-11T03:32:44.138Z,12.03
2023-03-11T03:35:15.784Z,12.08
2023-03-11T03:38:02.085Z,11.98
2023-03-11T03:40:29.925Z,12.01
2023-03-11T03:43:00.076Z,12.15
2023-03-11T03:45:29.543Z,12.27
2023-03-11T03:47:58.275Z,12.27
2023-03-11T03:50:27.298Z,12.17
2023-03-11T03:52:57.145Z,12.13
2023-03-11T03:55:25.165Z,12.15
2023-03-11T03:57:53.735Z,12.16
2023-03-11T04:00:25.299Z,12.07
2023-03-11T04:02:58.843Z,12.16
2023-03-11T04:05:34.827Z,12.01
2023-03-11T04:08:02.649Z,11.97
2023-03-11T04:10:30.318Z,11.95
2023-03-11T04:12:59.068Z,11.99
2023-03-11T04:15:27.130Z,12.00
2023-03-11T04:17:54.897Z,11.98
2023-03-11T04:20:22.665Z,12.23
2023-03-11T04:22:52.351Z,12.03
2023-03-11T04:25:23.000Z,11.97
2023-03-11T04:27:52.698Z,12.06
2023-03-11T04:30:22.285Z,12.03
2023-03-11T04:32:54.579Z,12.08
2023-03-11T04:35:22.692Z,12.01
2023-03-11T04:37:50.637Z,12.05
2023-03-11T04:40:18.423Z,11.99
2023-03-11T04:42:46.304Z,12.04
2023-03-11T04:45:14.592Z,11.99
2023-03-11T04:47:47.355Z,11.96
2023-03-11T04:50:15.534Z,12.27
2023-03-11T04:52:43.333Z,12.11
2023-03-11T04:55:11.347Z,12.09
2023-03-11T04:57:40.569Z,12.10
2023-03-11T05:00:11.853Z,12.16
2023-03-11T05:02:43.159Z,12.07
2023-03-11T05:05:12.166Z,12.10
2023-03-11T05:07:41.571Z,12.08
2023-03-11T05:10:10.414Z,12.08
2023-03-11T05:12:39.272Z,12.04
2023-03-11T05:15:08.135Z,12.01
2023-03-11T05:17:36.092Z,11.90
2023-03-11T05:20:07.069Z,12.03
2023-03-11T05:22:35.781Z,12.13
2023-03-11T05:25:03.872Z,12.13
2023-03-11T05:27:31.763Z,12.06
2023-03-11T05:29:59.349Z,12.08
2023-03-11T05:32:28.673Z,12.19
2023-03-11T05:34:56.405Z,12.18
2023-03-11T05:37:24.204Z,12.23
2023-03-11T05:39:53.867Z,12.07
2023-03-11T05:42:23.235Z,12.14
2023-03-11T05:44:54.048Z,12.16
2023-03-11T05:47:23.481Z,12.02
2023-03-11T05:49:51.259Z,12.08
2023-03-11T05:52:20.807Z,12.19
2023-03-11T05:54:49.777Z,12.27
2023-03-11T05:57:18.735Z,12.27
2023-03-11T05:59:46.404Z,12.13
2023-03-11T06:02:15.224Z,12.09
2023-03-11T06:04:43.609Z,12.18
2023-03-11T06:07:12.670Z,12.17
2023-03-11T06:09:41.287Z,12.15
2023-03-11T06:12:13.662Z,12.12
2023-03-11T06:14:54.972Z,12.10
2023-03-11T06:17:23.013Z,12.06
2023-03-11T06:19:50.684Z,12.05
2023-03-11T06:22:18.312Z,12.18
2023-03-11T06:24:46.218Z,12.08
2023-03-11T06:27:14.092Z,11.99
2023-03-11T06:29:42.491Z,12.02
2023-03-11T06:32:10.712Z,12.02
2023-03-11T06:34:38.312Z,12.18
2023-03-11T06:37:07.123Z,12.13
2023-03-11T06:39:34.772Z,12.15
2023-03-11T06:42:02.480Z,12.25
2023-03-11T06:44:31.057Z,12.27
2023-03-11T06:46:58.801Z,12.23
2023-03-11T06:49:26.488Z,12.17
2023-03-11T06:51:54.284Z,12.31
2023-03-11T06:54:21.884Z,12.24
2023-03-11T06:56:49.751Z,12.47
2023-03-11T06:59:17.592Z,12.48
2023-03-11T07:01:45.980Z,12.61
2023-03-11T07:04:14.576Z,12.79
2023-03-11T07:06:43.833Z,12.69
2023-03-11T07:09:19.582Z,12.76
2023-03-11T07:11:47.302Z,12.78
2023-03-11T07:14:20.744Z,12.94
2023-03-11T07:16:52.759Z,13.12
2023-03-11T07:19:34.486Z,13.16
2023-03-11T07:22:02.082Z,13.15
2023-03-11T07:24:29.769Z,13.30
2023-03-11T07:26:57.425Z,13.36
2023-03-11T07:29:25.099Z,13.42
2023-03-11T07:31:52.587Z,13.51
2023-03-11T07:34:20.182Z,13.66
2023-03-11T07:36:47.805Z,13.92
2023-03-11T07:39:17.725Z,14.31
2023-03-11T07:41:45.786Z,14.54
2023-03-11T07:44:14.380Z,14.34
2023-03-11T07:46:42.121Z,14.50
2023-03-11T07:49:09.689Z,14.49
2023-03-11T07:51:38.040Z,14.67
2023-03-11T07:54:05.876Z,14.74
2023-03-11T07:56:34.941Z,14.71
2023-03-11T07:59:03.297Z,14.58
2023-03-11T08:01:36.590Z,14.57
2023-03-11T08:04:06.221Z,14.46
2023-03-11T08:06:34.493Z,14.43
2023-03-11T08:09:04.119Z,14.57
2023-03-11T08:11:32.081Z,14.63
2023-03-11T08:13:59.734Z,14.74
2023-03-11T08:16:27.498Z,14.72
2023-03-11T08:18:55.762Z,14.88
2023-03-11T08:21:25.174Z,14.70
2023-03-11T08:23:56.816Z,14.57
2023-03-11T08:26:24.686Z,14.43
2023-03-11T08:28:52.362Z,14.36
2023-03-11T08:31:21.366Z,14.62
2023-03-11T08:33:52.896Z,14.75
2023-03-11T08:36:20.903Z,14.86
2023-03-11T08:38:48.765Z,14.91
2023-03-11T08:41:16.489Z,15.15
2023-03-11T08:43:44.760Z,15.33
2023-03-11T08:46:26.683Z,15.41
2023-03-11T08:48:55.053Z,15.39
2023-03-11T08:51:23.584Z,15.33
2023-03-11T08:53:51.361Z,15.21
2023-03-11T08:56:19.136Z,15.56
2023-03-11T08:58:47.565Z,15.73
2023-03-11T09:01:15.476Z,15.87
2023-03-11T09:03:43.141Z,16.14
2023-03-11T09:06:14.110Z,16.43
2023-03-11T09:08:42.258Z,16.71
2023-03-11T09:11:10.109Z,16.70
2023-03-11T09:13:39.641Z,16.90
2023-03-11T09:16:17.632Z,17.15
2023-03-11T09:18:47.307Z,17.18
2023-03-11T09:21:14.908Z,17.07
2023-03-11T09:23:44.320Z,17.44
2023-03-11T09:26:13.329Z,17.45
2023-03-11T09:28:41.178Z,17.08
2023-03-11T09:31:09.460Z,17.10
2023-03-11T09:33:38.580Z,16.72
2023-03-11T09:36:07.250Z,17.19
2023-03-11T09:38:34.905Z,17.55
2023-03-11T09:41:15.675Z,17.45
2023-03-11T09:43:52.538Z,17.39
2023-03-11T09:46:39.056Z,17.51
2023-03-11T09:49:24.051Z,17.48
2023-03-11T09:52:10.509Z,17.95
2023-03-11T09:54:40.846Z,17.98
2023-03-11T09:57:13.163Z,18.18
2023-03-11T09:59:43.020Z,18.59
2023-03-11T10:02:15.145Z,18.61
2023-03-11T10:04:45.983Z,18.47
2023-03-11T10:07:18.449Z,18.91
2023-03-11T10:09:52.513Z,19.57
2023-03-11T10:12:35.394Z,19.79
2023-03-11T10:15:22.362Z,18.73
2023-03-11T10:18:11.314Z,18.72
2023-03-11T10:20:58.094Z,18.95
2023-03-11T10:23:28.797Z,18.66
2023-03-11T10:26:18.882Z,18.70
2023-03-11T10:28:48.959Z,18.64
2023-03-11T10:31:27.047Z,18.36
2023-03-11T10:34:00.715Z,18.27
2023-03-11T10:36:54.642Z,18.00
2023-03-11T10:39:22.947Z,17.82
2023-03-11T10:41:56.083Z,17.86
2023-03-11T10:44:32.770Z,17.82
2023-03-11T10:47:01.910Z,17.76
2023-03-11T10:49:29.921Z,17.73
2023-03-11T10:51:58.376Z,17.75
2023-03-11T10:54:37.667Z,17.79
2023-03-11T10:57:23.962Z,17.94
2023-03-11T10:59:52.963Z,18.42
2023-03-11T11:02:20.546Z,18.97
2023-03-11T11:05:06.046Z,19.18
2023-03-11T11:07:39.730Z,19.56
2023-03-11T11:10:14.417Z,19.77
2023-03-11T11:13:11.410Z,20.30
2023-03-11T11:15:40.683Z,20.45
2023-03-11T11:18:19.876Z,21.00
2023-03-11T11:20:59.262Z,21.85
2023-03-11T11:23:47.102Z,21.34
2023-03-11T11:26:16.944Z,21.08
2023-03-11T11:28:44.812Z,20.51
2023-03-11T11:31:25.706Z,20.90
2023-03-11T11:33:54.170Z,20.95
2023-03-11T11:36:25.608Z,21.42
2023-03-11T11:38:54.811Z,21.94
2023-03-11T11:41:24.106Z,22.77
2023-03-11T11:43:53.818Z,23.19
2023-03-11T11:46:25.131Z,23.96
2023-03-11T11:48:52.676Z,24.03
2023-03-11T11:51:21.832Z,24.53
2023-03-11T11:53:58.316Z,24.22
2023-03-11T11:56:26.524Z,24.70
2023-03-11T11:58:54.946Z,24.57
2023-03-11T12:01:22.456Z,25.94
2023-03-11T12:04:03.888Z,26.88
2023-03-11T12:06:35.567Z,27.57
2023-03-11T12:09:08.668Z,27.25
2023-03-11T12:11:41.789Z,28.19
2023-03-11T12:14:14.115Z,29.45
2023-03-11T12:16:53.385Z,30.34
2023-03-11T12:19:28.574Z,30.84
2023-03-11T12:22:05.064Z,30.48
2023-03-11T12:24:51.095Z,29.58
2023-03-11T12:27:41.636Z,29.79
2023-03-11T12:30:18.596Z,31.24
2023-03-11T12:32:54.548Z,32.32
2023-03-11T12:35:25.317Z,31.86
2023-03-11T12:38:01.793Z,31.73
2023-03-11T12:40:44.694Z,31.86
2023-03-11T12:43:32.890Z,32.57
2023-03-11T12:46:04.647Z,32.61
2023-03-11T12:48:37.138Z,33.36
2023-03-11T12:51:08.788Z,33.74
2023-03-11T12:53:44.491Z,33.89
2023-03-11T12:56:21.135Z,33.07
2023-03-11T12:59:15.118Z,33.60
2023-03-11T13:01:45.751Z,31.34
2023-03-11T13:04:33.658Z,31.98
2023-03-11T13:07:19.362Z,32.17
2023-03-11T13:09:59.916Z,33.33
2023-03-11T13:12:40.417Z,34.80
2023-03-11T13:15:20.394Z,36.58
2023-03-11T13:18:02.523Z,35.99
2023-03-11T13:20:39.248Z,36.66
2023-03-11T13:23:12.728Z,36.81
2023-03-11T13:25:56.694Z,38.04
2023-03-11T13:28:37.121Z,37.49
2023-03-11T13:31:17.094Z,34.85
2023-03-11T13:33:55.152Z,35.00
2023-03-11T13:36:30.226Z,35.77
2023-03-11T13:39:08.907Z,37.00
2023-03-11T13:41:37.427Z,39.29
2023-03-11T13:44:14.275Z,39.06
2023-03-11T13:46:43.195Z,37.56
2023-03-11T13:49:22.453Z,38.32
2023-03-11T13:51:50.415Z,38.97
2023-03-11T13:54:20.337Z,37.66
2023-03-11T13:56:57.539Z,37.66
2023-03-11T13:59:27.799Z,39.18
2023-03-11T14:01:57.312Z,40.15
2023-03-11T14:04:47.968Z,40.66
2023-03-11T14:07:21.746Z,39.21
2023-03-11T14:09:49.367Z,38.78
2023-03-11T14:12:18.986Z,38.79
2023-03-11T14:15:06.126Z,39.11
2023-03-11T14:17:33.687Z,38.84
2023-03-11T14:20:07.015Z,37.84
2023-03-11T14:22:34.719Z,37.17
2023-03-11T14:25:05.131Z,38.67
2023-03-11T14:27:32.789Z,38.42
2023-03-11T14:30:00.575Z,37.85
2023-03-11T14:32:29.807Z,37.27
2023-03-11T14:34:57.633Z,36.13
2023-03-11T14:37:33.451Z,34.92
2023-03-11T14:40:01.286Z,35.66
2023-03-11T14:42:35.055Z,36.62
2023-03-11T14:45:02.808Z,35.90
2023-03-11T14:47:39.708Z,36.09
2023-03-11T14:50:11.186Z,35.31
2023-03-11T14:52:52.949Z,35.12
2023-03-11T14:55:22.752Z,32.62
2023-03-11T14:58:00.666Z,32.67
2023-03-11T15:00:30.631Z,33.10
2023-03-11T15:03:04.439Z,32.98
2023-03-11T15:05:40.254Z,31.90
2023-03-11T15:08:08.098Z,30.65
2023-03-11T15:10:37.332Z,30.26
2023-03-11T15:13:11.108Z,30.19
2023-03-11T15:15:38.823Z,29.80
2023-03-11T15:18:21.794Z,29.11
2023-03-11T15:21:01.785Z,28.82
2023-03-11T15:23:29.523Z,28.50
2023-03-11T15:25:57.252Z,28.19
2023-03-11T15:28:27.956Z,28.02
2023-03-11T15:31:14.633Z,27.82
2023-03-11T15:33:42.723Z,26.63
2023-03-11T15:36:29.208Z,26.99
2023-03-11T15:39:09.013Z,27.05
2023-03-11T15:41:36.626Z,26.77
2023-03-11T15:44:07.688Z,26.98
2023-03-11T15:46:35.467Z,26.85
2023-03-11T15:49:03.087Z,26.31
2023-03-11T15:51:30.746Z,25.75
2023-03-11T15:53:58.335Z,26.06
2023-03-11T15:56:25.865Z,25.90
2023-03-11T15:58:53.445Z,24.87
2023-03-11T16:01:23.883Z,25.49
2023-03-11T16:03:51.631Z,25.48
2023-03-11T16:06:19.245Z,25.45
2023-03-11T16:08:46.805Z,25.06
2023-03-11T16:11:14.865Z,25.05
2023-03-11T16:13:42.556Z,24.97
2023-03-11T16:16:20.390Z,24.72
2023-03-11T16:18:48.182Z,24.60
2023-03-11T16:21:17.538Z,23.45
2023-03-11T16:23:52.035Z,23.82
2023-03-11T16:26:22.499Z,23.52
2023-03-11T16:28:50.085Z,23.78
2023-03-11T16:31:17.796Z,23.48
2023-03-11T16:33:45.524Z,23.26
2023-03-11T16:36:13.248Z,23.13
2023-03-11T16:38:45.812Z,23.16
2023-03-11T16:41:13.662Z,23.00
2023-03-11T16:43:41.491Z,22.37
2023-03-11T16:46:09.665Z,22.35
2023-03-11T16:48:37.306Z,22.47
2023-03-11T16:51:05.127Z,22.27
2023-03-11T16:53:32.783Z,22.06
2023-03-11T16:56:00.447Z,22.02
2023-03-11T16:58:28.114Z,21.85
2023-03-11T17:00:55.819Z,21.72
2023-03-11T17:03:24.846Z,21.79
2023-03-11T17:06:00.894Z,21.56
2023-03-11T17:08:28.498Z,21.45
2023-03-11T17:10:56.140Z,21.49
2023-03-11T17:13:23.834Z,21.31
2023-03-11T17:16:01.860Z,21.21
2023-03-11T17:18:29.693Z,20.83
2023-03-11T17:20:57.255Z,20.65
2023-03-11T17:23:24.994Z,20.60
2023-03-11T17:25:52.663Z,20.47
2023-03-11T17:28:20.291Z,20.50
2023-03-11T17:30:47.925Z,20.41
2023-03-11T17:33:15.532Z,20.40
2023-03-11T17:35:43.376Z,20.33
2023-03-11T17:38:11.097Z,20.13
2023-03-11T17:40:38.736Z,20.01
2023-03-11T17:43:06.486Z,19.99
2023-03-11T17:45:34.164Z,19.95
2023-03-11T17:48:01.871Z,19.78
2023-03-11T17:50:29.765Z,19.84
2023-03-11T17:52:57.385Z,19.70
2023-03-11T17:55:25.115Z,19.55
2023-03-11T17:57:52.927Z,19.36
2023-03-11T18:00:20.877Z,19.44
2023-03-11T18:02:48.592Z,19.37
2023-03-11T18:05:18.600Z,19.28
2023-03-11T18:07:46.649Z,19.21
2023-03-11T18:10:14.992Z,19.17
2023-03-11T18:12:46.272Z,18.97
2023-03-11T18:15:20.230Z,18.98
2023-03-11T18:17:48.481Z,19.04
2023-03-11T18:20:16.512Z,19.08
2023-03-11T18:22:46.624Z,19.05
2023-03-11T18:25:14.776Z,18.83
2023-03-11T18:27:42.556Z,18.91
2023-03-11T18:30:11.489Z,18.69
2023-03-11T18:32:39.225Z,18.59
2023-03-11T18:35:07.187Z,18.53
2023-03-11T18:37:34.946Z,18.52
2023-03-11T18:40:03.034Z,18.59
2023-03-11T18:42:32.495Z,18.51
2023-03-11T18:45:00.167Z,18.39
2023-03-11T18:47:27.844Z,18.35
2023-03-11T18:49:55.468Z,18.25
2023-03-11T18:52:23.204Z,18.21
2023-03-11T18:54:50.813Z,18.02
2023-03-11T18:57:18.407Z,18.02
2023-03-11T18:59:47.463Z,17.98
2023-03-11T19:02:15.064Z,18.00
2023-03-11T19:04:42.706Z,17.79
2023-03-11T19:07:10.407Z,17.86
2023-03-11T19:09:38.129Z,17.94
2023-03-11T19:12:05.919Z,17.97
2023-03-11T19:14:33.509Z,17.86
2023-03-11T19:17:01.232Z,17.68
2023-03-11T19:19:29.232Z,17.62
2023-03-11T19:21:56.829Z,17.63
2023-03-11T19:24:24.411Z,17.60
2023-03-11T19:26:52.316Z,17.58
2023-03-11T19:29:20.650Z,17.50
2023-03-11T19:31:48.216Z,17.43
2023-03-11T19:34:15.983Z,17.27
2023-03-11T19:36:43.831Z,17.31
2023-03-11T19:39:11.617Z,17.31
2023-03-11T19:41:39.280Z,17.06
2023-03-11T19:44:07.042Z,16.99
2023-03-11T19:46:36.546Z,16.88
2023-03-11T19:49:04.487Z,16.82
2023-03-11T19:51:46.412Z,16.66
2023-03-11T19:54:16.658Z,16.61
2023-03-11T19:56:44.463Z,16.21
2023-03-11T19:59:12.353Z,16.24
2023-03-11T20:01:42.377Z,16.32
2023-03-11T20:04:11.369Z,16.12
2023-03-11T20:06:39.335Z,16.02
2023-03-11T20:09:07.151Z,16.02
2023-03-11T20:11:37.331Z,15.89
2023-03-11T20:14:06.571Z,15.82
2023-03-11T20:16:34.470Z,15.77
2023-03-11T20:19:02.323Z,15.86
2023-03-11T20:21:30.001Z,15.88
2023-03-11T20:23:57.877Z,15.86
2023-03-11T20:26:27.014Z,15.86
2023-03-11T20:28:55.287Z,15.86
2023-03-11T20:31:24.186Z,15.76
2023-03-11T20:33:52.274Z,15.84
2023-03-11T20:36:21.725Z,15.73
2023-03-11T20:38:50.245Z,15.79
2023-03-11T20:41:18.562Z,15.76
2023-03-11T20:43:46.362Z,15.69
2023-03-11T20:46:14.364Z,15.66
2023-03-11T20:48:42.150Z,15.70
2023-03-11T20:51:11.907Z,15.62
2023-03-11T20:53:39.993Z,15.59
2023-03-11T20:56:12.652Z,15.52
2023-03-11T20:58:41.032Z,15.59
2023-03-11T21:01:22.579Z,15.55
2023-03-11T21:03:53.069Z,15.51
2023-03-11T21:06:23.197Z,15.43
2023-03-11T21:08:53.233Z,15.36
2023-03-11T21:11:21.444Z,15.45
2023-03-11T21:13:49.497Z,15.43
2023-03-11T21:16:17.944Z,15.38
2023-03-11T21:18:48.582Z,15.35
2023-03-11T21:21:17.713Z,15.34
2023-03-11T21:23:46.310Z,15.29
2023-03-11T21:26:14.975Z,15.26
2023-03-11T21:28:46.971Z,15.29
2023-03-11T21:31:16.970Z,15.32
2023-03-11T21:33:45.121Z,15.18
2023-03-11T21:36:14.067Z,15.25
2023-03-11T21:38:41.890Z,15.12
2023-03-11T21:41:11.065Z,15.11
2023-03-11T21:43:39.796Z,15.19
2023-03-11T21:46:08.681Z,15.16
2023-03-11T21:48:36.717Z,15.09
2023-03-11T21:51:04.577Z,15.11
2023-03-11T21:53:32.338Z,15.11
2023-03-11T21:56:00.065Z,15.10
2023-03-11T21:58:28.041Z,15.02
2023-03-11T22:00:56.334Z,14.95
2023-03-11T22:03:24.485Z,14.96
2023-03-11T22:05:56.740Z,14.91
2023-03-11T22:08:25.103Z,14.89
2023-03-11T22:10:53.057Z,14.90
2023-03-11T22:13:21.257Z,14.93
2023-03-11T22:15:49.113Z,14.81
2023-03-11T22:18:17.204Z,14.77
2023-03-11T22:20:45.099Z,14.85
2023-03-11T22:23:12.738Z,14.77
2023-03-11T22:25:40.553Z,14.81
2023-03-11T22:28:12.212Z,14.75
2023-03-11T22:30:39.857Z,14.78
2023-03-11T22:33:07.617Z,14.67
2023-03-11T22:35:35.526Z,14.70
2023-03-11T22:38:03.220Z,14.73
2023-03-11T22:40:30.879Z,14.74
2023-03-11T22:42:58.531Z,14.75
2023-03-11T22:45:26.180Z,14.67
2023-03-11T22:47:55.069Z,14.60
2023-03-11T22:50:22.645Z,14.65
2023-03-11T22:52:50.243Z,14.62
2023-03-11T22:55:17.971Z,14.67
2023-03-11T22:57:45.635Z,14.63
2023-03-11T23:00:17.933Z,14.61
2023-03-11T23:02:46.735Z,14.61
2023-03-11T23:05:15.584Z,14.58
2023-03-11T23:07:43.230Z,14.58
2023-03-11T23:10:11.861Z,14.64
2023-03-11T23:12:39.597Z,14.59
2023-03-11T23:15:09.093Z,14.56
2023-03-11T23:17:36.761Z,14.49
2023-03-11T23:20:05.858Z,14.48
2023-03-11T23:22:37.416Z,14.47
2023-03-11T23:25:05.863Z,14.49
2023-03-11T23:27:33.576Z,14.55
2023-03-11T23:30:01.284Z,14.50
2023-03-11T23:32:29.261Z,14.52
2023-03-11T23:34:57.065Z,14.50
2023-03-11T23:37:24.617Z,14.54
2023-03-11T23:39:52.364Z,14.54
2023-03-11T23:42:25.706Z,14.49
2023-03-11T23:44:54.051Z,14.47
2023-03-11T23:47:21.685Z,14.41
2023-03-11T23:49:49.288Z,14.37
2023-03-11T23:52:16.867Z,14.45
2023-03-11T23:54:44.454Z,14.43
2023-03-11T23:57:12.054Z,14.43
2023-03-11T23:59:39.664Z,14.42
